»·PEaware :: SKW5714 KSFO-KSBP

SKW5714 :: KSFO-KSBP

FLIGHT INFORMATION

Flight Status: Arrived
Operator:
SkyWest Airlines
More flights by this operator :: More flights under this callsign
Pilot: James N. (18449)
Aircraft: EMBRAER EMB-170/175
(E170)
More flights by this aircraft type
Origin: KSFO San Francisco Intl
United States
Destination: KSBP San Luis Co Regl
United States
More flights between these airports :: More routes between these airports
Route: OFFSH1 MCKEY MQO
File this flight plan on PilotEdge
Remarks:
Altitude:
(Current/Filed)
29,000ft
Speed:
(Current/Filed)
460kts
Departed: 14-May-18 08:54 PM
Arrived: 14-May-18 09:34 PM
Distance/Time
Traveled:
166nm/0:40
Distance/Time
To Go:
Arrived

Flight Plot

Page will automatically refresh every two minutes.

Flight plan parsing failed; only flown route is shown


Map Options




Map Legend


Flown Route
Filed Route
Departure Airport
Arrival Airport
Navaid (VOR, NDB)
Fix

Horizontal Profiles

Position Reports

Time Latitude Longitude Heading Altitude Ground
Speed
14-May-18 20:31 37.618894 -122.385939 170 19ft 0kts
14-May-18 20:32 37.618894 -122.385939 170 19ft 0kts
14-May-18 20:33 37.618894 -122.385939 170 19ft 0kts
14-May-18 20:34 37.618894 -122.385939 170 19ft 0kts
14-May-18 20:35 37.618894 -122.385939 170 19ft 0kts
14-May-18 20:36 37.618894 -122.385939 170 19ft 0kts
14-May-18 20:37 37.618894 -122.385939 170 19ft 0kts
14-May-18 20:38 37.618894 -122.385939 170 19ft 0kts
14-May-18 20:39 37.618911 -122.385943 171 19ft 1kts
14-May-18 20:40 37.619428 -122.386086 138 19ft 2kts
14-May-18 20:41 37.619642 -122.385576 37 19ft 3kts
14-May-18 20:42 37.619745 -122.385507 25 19ft 0kts
14-May-18 20:43 37.619745 -122.385507 25 19ft 0kts
14-May-18 20:44 37.619745 -122.385507 25 19ft 0kts
14-May-18 20:45 37.619796 -122.385477 25 19ft 1kts
14-May-18 20:46 37.620677 -122.384537 96 19ft 6kts
14-May-18 20:47 37.619658 -122.381995 119 19ft 9kts
14-May-18 20:48 37.618519 -122.379935 148 19ft 9kts
14-May-18 20:49 37.615610 -122.380343 211 19ft 11kts
14-May-18 20:50 37.612989 -122.382047 206 19ft 9kts
14-May-18 20:51 37.610811 -122.383487 209 19ft 8kts
14-May-18 20:52 37.608678 -122.384294 124 19ft 8kts
14-May-18 20:53 37.608485 -122.383900 116 19ft 0kts
14-May-18 20:54 37.613355 -122.379388 28 19ft 105kts
14-May-18 20:55 37.652011 -122.366577 342 2187ft 156kts
14-May-18 20:56 37.703579 -122.360796 2 3982ft 237kts
14-May-18 20:57 37.719444 -122.414694 218 7670ft 253kts
14-May-18 20:58 37.654814 -122.472464 216 10676ft 296kts
14-May-18 20:59 37.581171 -122.540689 216 12435ft 355kts
14-May-18 21:00 37.500129 -122.616099 216 15859ft 374kts
14-May-18 21:01 37.410715 -122.683801 182 18860ft 391kts
14-May-18 21:02 37.302636 -122.659320 167 21520ft 406kts
14-May-18 21:03 37.192441 -122.630695 167 24201ft 409kts
14-May-18 21:04 37.079532 -122.601911 168 26166ft 421kts
14-May-18 21:05 36.964870 -122.572756 168 28459ft 415kts
14-May-18 21:06 36.850031 -122.543215 168 29073ft 433kts
14-May-18 21:07 36.732270 -122.512969 168 29074ft 434kts
14-May-18 21:08 36.614088 -122.482355 168 29082ft 434kts
14-May-18 21:09 36.496474 -122.451825 168 29082ft 434kts
14-May-18 21:10 36.388598 -122.391569 136 29090ft 436kts
14-May-18 21:11 36.310922 -122.276484 128 29082ft 437kts
14-May-18 21:12 36.235625 -122.159057 130 29081ft 437kts
14-May-18 21:13 36.157194 -122.044785 131 29081ft 437kts
14-May-18 21:14 36.078846 -121.931096 131 29081ft 437kts
14-May-18 21:15 35.999509 -121.816842 131 29081ft 437kts
14-May-18 21:16 35.920397 -121.703331 131 29081ft 437kts
14-May-18 21:17 35.841434 -121.591425 131 29069ft 437kts
14-May-18 21:18 35.761935 -121.479299 131 29047ft 437kts
14-May-18 21:19 35.683134 -121.367228 131 27941ft 437kts
14-May-18 21:20 35.603601 -121.253423 131 26706ft 440kts
14-May-18 21:21 35.524659 -121.141386 132 25066ft 428kts
14-May-18 21:22 35.448028 -121.033791 132 23178ft 414kts
14-May-18 21:23 35.374684 -120.930577 132 19718ft 389kts
14-May-18 21:24 35.311863 -120.842635 131 14638ft 359kts
14-May-18 21:25 35.256259 -120.765589 133 10655ft 316kts
14-May-18 21:26 35.201479 -120.696716 132 8195ft 278kts
14-May-18 21:27 35.148349 -120.630462 132 5315ft 264kts
14-May-18 21:28 35.105890 -120.570623 99 4598ft 231kts
14-May-18 21:29 35.149288 -120.529779 353 3675ft 211kts
14-May-18 21:30 35.191302 -120.562280 301 2622ft 149kts
14-May-18 21:31 35.215202 -120.602115 305 1318ft 141kts
14-May-18 21:32 35.236595 -120.639685 305 217ft 115kts
14-May-18 21:34 35.242521 -120.648311 110 217ft 9kts
14-May-18 21:35 35.241202 -120.645920 124 217ft 9kts
14-May-18 21:36 35.239482 -120.642875 125 217ft 11kts
14-May-18 21:37 35.238634 -120.640882 346 217ft 0kts
14-May-18 21:38 35.238634 -120.640882 346 217ft 0kts
14-May-18 21:39 35.238634 -120.640882 346 217ft 0kts

Navigation Log

Ident Type
Flight plan parsing failed, navigation log unavailable